Simcoe-Lingwood

*Note: All times are displayed in the local standard time of the station location.
**Rain - Equipment is designed to accurately record liquid precipitation; under conditions when precipitation is not in liquid form, the data displayed may not properly reflect rainfall values.

Date Max Temp
(°C)
Min Temp
(°C)
Avg Temp
(°C)
Rain (mm) Avg RH (%)
Mon, Jun 17, 2019 22.9 9.7 16.7 0.0 82.2
Sun, Jun 16, 2019 17.7 11.2 14.9 0.0 89.0
Sat, Jun 15, 2019 18.3 15.9 16.9 4.0 82.8
Fri, Jun 14, 2019 22.2 10.4 15.9 0.0 73.9
Thu, Jun 13, 2019 18.6 12.2 15.2 0.8 94.1
Wed, Jun 12, 2019 23.7 5.8 15.9 0.0 70.1
Tue, Jun 11, 2019 22.9 8.0 15.8 0.0 70.3
DateTime Avg Temp (°C) Rain (mm) RH (%)
Tue, Jun 18, 2019 23:00 16.4 0.0 93.9
Tue, Jun 18, 2019 22:00 18.3 0.0 88.0
Tue, Jun 18, 2019 21:00 20.9 0.0 74.9
Tue, Jun 18, 2019 20:00 22.4 0.0 67.4
Tue, Jun 18, 2019 19:00 24.0 0.0 63.9
Tue, Jun 18, 2019 18:00 25.0 0.0 60.4
Tue, Jun 18, 2019 17:00 25.2 0.0 60.0
Tue, Jun 18, 2019 16:00 25.9 0.0 59.3
Tue, Jun 18, 2019 15:00 25.1 0.0 57.6
Tue, Jun 18, 2019 14:00 25.1 0.0 57.6
Tue, Jun 18, 2019 13:00 23.9 0.0 61.2
Tue, Jun 18, 2019 12:00 22.2 0.0 61.7
Tue, Jun 18, 2019 11:00 21.1 0.0 68.1
Tue, Jun 18, 2019 10:00 19.6 0.0 67.9
Tue, Jun 18, 2019 09:00 17.1 0.0 78.2
Tue, Jun 18, 2019 08:00 15.5 0.0 83.2
Tue, Jun 18, 2019 07:00 13.8 0.0 88.9
Tue, Jun 18, 2019 06:00 13.1 0.0 92.0
Tue, Jun 18, 2019 05:00 13.6 0.0 89.6
Tue, Jun 18, 2019 04:00 14.1 0.0 89.4
Tue, Jun 18, 2019 03:00 14.0 0.0 92.3
Tue, Jun 18, 2019 02:00 14.4 0.0 89.4
Tue, Jun 18, 2019 01:00 14.0 0.0 94.3
Tue, Jun 18, 2019 00:00 14.2 0.0 94.8
Mon, Jun 17, 2019 23:00 14.5 0.0 93.3
Mon, Jun 17, 2019 22:00 16.0 0.0 86.3
Mon, Jun 17, 2019 20:00 20.2 0.0 69.9
Mon, Jun 17, 2019 19:00 20.7 0.0 66.8
Mon, Jun 17, 2019 18:00 22.4 0.0 67.1
Mon, Jun 17, 2019 17:00 22.7 0.0 67.0
Mon, Jun 17, 2019 16:00 22.7 0.0 65.3
Mon, Jun 17, 2019 15:00 22.3 0.0 64.1
Mon, Jun 17, 2019 14:00 22.6 0.0 62.1
Mon, Jun 17, 2019 13:00 22.0 0.0 64.2
Mon, Jun 17, 2019 12:00 20.9 0.0 68.6
Mon, Jun 17, 2019 11:00 19.4 0.0 73.3
Mon, Jun 17, 2019 10:00 17.2 0.0 78.5
Mon, Jun 17, 2019 09:00 15.0 0.0 88.3
Mon, Jun 17, 2019 08:00 13.4 0.0 92.6
Mon, Jun 17, 2019 07:00 11.0 0.0 99.7
Mon, Jun 17, 2019 06:00 9.8 0.0 98.9
Mon, Jun 17, 2019 05:00 10.7 0.0 97.9
Mon, Jun 17, 2019 04:00 11.2 0.0 99.3
Mon, Jun 17, 2019 03:00 10.6 0.0 99.5
Mon, Jun 17, 2019 02:00 11.0 0.0 99.4
Mon, Jun 17, 2019 01:00 11.9 0.0 99.7
Mon, Jun 17, 2019 00:00 11.4 0.0 98.4
Sun, Jun 16, 2019 23:00 11.9 0.0 96.2


asterix Register now to access more data! asterix